sensor_id;sensor_type;location;lat;lon;timestamp;P1;durP1;ratioP1;P2;durP2;ratioP2
54259;SDS011;40172;53.022;7.012;2022-10-16T00:00:40;7.93;;;2.25;;
54259;SDS011;40172;53.022;7.012;2022-10-16T00:03:07;10.75;;;2.85;;
54259;SDS011;40172;53.022;7.012;2022-10-16T00:05:37;10.27;;;2.70;;
54259;SDS011;40172;53.022;7.012;2022-10-16T00:08:06;9.37;;;2.60;;
54259;SDS011;40172;53.022;7.012;2022-10-16T00:10:32;7.47;;;2.08;;
54259;SDS011;40172;53.022;7.012;2022-10-16T00:12:58;9.30;;;2.25;;
54259;SDS011;40172;53.022;7.012;2022-10-16T00:15:24;9.07;;;2.20;;
54259;SDS011;40172;53.022;7.012;2022-10-16T00:17:50;10.65;;;2.25;;
54259;SDS011;40172;53.022;7.012;2022-10-16T00:20:15;13.23;;;2.45;;
54259;SDS011;40172;53.022;7.012;2022-10-16T00:22:41;11.40;;;2.45;;
54259;SDS011;40172;53.022;7.012;2022-10-16T00:25:06;7.78;;;2.50;;
54259;SDS011;40172;53.022;7.012;2022-10-16T00:27:32;7.72;;;2.33;;
54259;SDS011;40172;53.022;7.012;2022-10-16T00:29:58;9.25;;;2.47;;
54259;SDS011;40172;53.022;7.012;2022-10-16T00:32:24;8.85;;;2.20;;
54259;SDS011;40172;53.022;7.012;2022-10-16T00:34:49;9.00;;;2.30;;
54259;SDS011;40172;53.022;7.012;2022-10-16T00:37:15;8.05;;;2.20;;
54259;SDS011;40172;53.022;7.012;2022-10-16T00:39:41;9.00;;;2.30;;
54259;SDS011;40172;53.022;7.012;2022-10-16T00:42:06;7.35;;;2.30;;
54259;SDS011;40172;53.022;7.012;2022-10-16T00:49:56;9.10;;;2.15;;
54259;SDS011;40172;53.022;7.012;2022-10-16T00:52:27;8.15;;;2.50;;
54259;SDS011;40172;53.022;7.012;2022-10-16T00:54:53;13.45;;;2.20;;
54259;SDS011;40172;53.022;7.012;2022-10-16T00:57:20;9.40;;;2.10;;
54259;SDS011;40172;53.022;7.012;2022-10-16T00:59:46;10.73;;;2.45;;
54259;SDS011;40172;53.022;7.012;2022-10-16T01:02:13;6.80;;;2.10;;
54259;SDS011;40172;53.022;7.012;2022-10-16T01:04:41;10.00;;;2.42;;
54259;SDS011;40172;53.022;7.012;2022-10-16T01:10:17;10.07;;;1.98;;
54259;SDS011;40172;53.022;7.012;2022-10-16T01:13:01;9.13;;;2.50;;
54259;SDS011;40172;53.022;7.012;2022-10-16T01:18:36;8.65;;;2.70;;
54259;SDS011;40172;53.022;7.012;2022-10-16T01:21:10;5.38;;;2.17;;
54259;SDS011;40172;53.022;7.012;2022-10-16T01:26:19;5.63;;;2.10;;
54259;SDS011;40172;53.022;7.012;2022-10-16T01:28:56;6.57;;;2.33;;
54259;SDS011;40172;53.022;7.012;2022-10-16T01:31:29;7.03;;;2.20;;
54259;SDS011;40172;53.022;7.012;2022-10-16T01:34:04;11.82;;;2.75;;
54259;SDS011;40172;53.022;7.012;2022-10-16T01:36:39;11.93;;;2.47;;
54259;SDS011;40172;53.022;7.012;2022-10-16T01:39:12;8.57;;;2.70;;
54259;SDS011;40172;53.022;7.012;2022-10-16T01:41:39;7.03;;;2.30;;
54259;SDS011;40172;53.022;7.012;2022-10-16T01:44:10;9.48;;;2.63;;
54259;SDS011;40172;53.022;7.012;2022-10-16T01:46:45;9.25;;;2.80;;
54259;SDS011;40172;53.022;7.012;2022-10-16T01:49:13;10.00;;;2.63;;
54259;SDS011;40172;53.022;7.012;2022-10-16T01:51:41;10.85;;;2.70;;
54259;SDS011;40172;53.022;7.012;2022-10-16T01:54:10;8.65;;;2.60;;
54259;SDS011;40172;53.022;7.012;2022-10-16T01:56:38;10.40;;;2.50;;
54259;SDS011;40172;53.022;7.012;2022-10-16T01:59:06;8.27;;;3.30;;
54259;SDS011;40172;53.022;7.012;2022-10-16T02:01:36;8.18;;;2.80;;
54259;SDS011;40172;53.022;7.012;2022-10-16T02:04:09;7.78;;;2.92;;
54259;SDS011;40172;53.022;7.012;2022-10-16T02:06:39;7.47;;;3.15;;
54259;SDS011;40172;53.022;7.012;2022-10-16T02:09:05;6.45;;;2.70;;
54259;SDS011;40172;53.022;7.012;2022-10-16T02:11:30;7.20;;;2.60;;
54259;SDS011;40172;53.022;7.012;2022-10-16T02:14:01;8.05;;;2.85;;
54259;SDS011;40172;53.022;7.012;2022-10-16T02:16:38;8.30;;;2.90;;
54259;SDS011;40172;53.022;7.012;2022-10-16T02:19:06;9.82;;;3.15;;
54259;SDS011;40172;53.022;7.012;2022-10-16T02:21:40;7.00;;;2.50;;
54259;SDS011;40172;53.022;7.012;2022-10-16T02:24:13;6.03;;;2.38;;
54259;SDS011;40172;53.022;7.012;2022-10-16T02:26:57;7.32;;;3.28;;
54259;SDS011;40172;53.022;7.012;2022-10-16T02:29:25;6.32;;;2.67;;
54259;SDS011;40172;53.022;7.012;2022-10-16T02:31:53;6.82;;;2.53;;
54259;SDS011;40172;53.022;7.012;2022-10-16T02:34:22;7.35;;;2.60;;
54259;SDS011;40172;53.022;7.012;2022-10-16T02:36:50;5.78;;;2.30;;
54259;SDS011;40172;53.022;7.012;2022-10-16T02:39:17;8.23;;;2.60;;
54259;SDS011;40172;53.022;7.012;2022-10-16T02:41:44;11.65;;;3.15;;
54259;SDS011;40172;53.022;7.012;2022-10-16T02:44:10;7.30;;;2.30;;
54259;SDS011;40172;53.022;7.012;2022-10-16T02:46:36;6.43;;;2.50;;
54259;SDS011;40172;53.022;7.012;2022-10-16T02:49:02;5.22;;;2.38;;
54259;SDS011;40172;53.022;7.012;2022-10-16T02:51:27;8.63;;;2.88;;
54259;SDS011;40172;53.022;7.012;2022-10-16T02:53:53;4.20;;;2.45;;
54259;SDS011;40172;53.022;7.012;2022-10-16T02:56:18;8.73;;;2.50;;
54259;SDS011;40172;53.022;7.012;2022-10-16T02:58:44;5.32;;;2.10;;
54259;SDS011;40172;53.022;7.012;2022-10-16T03:01:10;7.78;;;2.40;;
54259;SDS011;40172;53.022;7.012;2022-10-16T03:03:37;5.53;;;2.20;;
54259;SDS011;40172;53.022;7.012;2022-10-16T03:06:03;8.55;;;2.50;;
54259;SDS011;40172;53.022;7.012;2022-10-16T03:08:29;9.57;;;2.58;;
54259;SDS011;40172;53.022;7.012;2022-10-16T03:10:55;5.78;;;2.50;;
54259;SDS011;40172;53.022;7.012;2022-10-16T03:13:20;14.35;;;2.80;;
54259;SDS011;40172;53.022;7.012;2022-10-16T03:15:46;7.43;;;2.45;;
54259;SDS011;40172;53.022;7.012;2022-10-16T03:18:11;6.85;;;2.58;;
54259;SDS011;40172;53.022;7.012;2022-10-16T03:20:37;8.68;;;2.40;;
54259;SDS011;40172;53.022;7.012;2022-10-16T03:23:03;7.57;;;2.45;;
54259;SDS011;40172;53.022;7.012;2022-10-16T03:25:29;6.72;;;2.65;;
54259;SDS011;40172;53.022;7.012;2022-10-16T03:27:54;5.90;;;2.30;;
54259;SDS011;40172;53.022;7.012;2022-10-16T03:30:20;7.40;;;2.60;;
54259;SDS011;40172;53.022;7.012;2022-10-16T03:32:45;8.10;;;2.60;;
54259;SDS011;40172;53.022;7.012;2022-10-16T03:35:11;7.80;;;2.22;;
54259;SDS011;40172;53.022;7.012;2022-10-16T03:37:37;8.35;;;2.58;;
54259;SDS011;40172;53.022;7.012;2022-10-16T03:40:03;6.68;;;2.38;;
54259;SDS011;40172;53.022;7.012;2022-10-16T03:42:29;8.45;;;2.55;;
54259;SDS011;40172;53.022;7.012;2022-10-16T03:44:55;6.68;;;2.40;;
54259;SDS011;40172;53.022;7.012;2022-10-16T03:47:20;4.80;;;2.35;;
54259;SDS011;40172;53.022;7.012;2022-10-16T03:49:48;5.85;;;2.38;;
54259;SDS011;40172;53.022;7.012;2022-10-16T03:52:14;4.50;;;2.30;;
54259;SDS011;40172;53.022;7.012;2022-10-16T03:54:40;6.15;;;2.13;;
54259;SDS011;40172;53.022;7.012;2022-10-16T03:57:06;5.68;;;2.10;;
54259;SDS011;40172;53.022;7.012;2022-10-16T03:59:31;8.25;;;2.53;;
54259;SDS011;40172;53.022;7.012;2022-10-16T04:01:57;7.38;;;2.40;;
54259;SDS011;40172;53.022;7.012;2022-10-16T04:04:23;5.20;;;2.30;;
54259;SDS011;40172;53.022;7.012;2022-10-16T04:06:49;8.10;;;2.33;;
54259;SDS011;40172;53.022;7.012;2022-10-16T04:09:15;7.25;;;2.65;;
54259;SDS011;40172;53.022;7.012;2022-10-16T04:11:41;4.95;;;2.38;;
54259;SDS011;40172;53.022;7.012;2022-10-16T04:14:06;4.93;;;2.15;;
54259;SDS011;40172;53.022;7.012;2022-10-16T04:16:32;6.25;;;2.35;;
54259;SDS011;40172;53.022;7.012;2022-10-16T04:18:57;4.60;;;2.60;;
54259;SDS011;40172;53.022;7.012;2022-10-16T04:21:23;4.65;;;2.60;;
54259;SDS011;40172;53.022;7.012;2022-10-16T04:23:49;6.25;;;2.63;;
54259;SDS011;40172;53.022;7.012;2022-10-16T04:26:14;11.32;;;2.58;;
54259;SDS011;40172;53.022;7.012;2022-10-16T04:28:40;5.97;;;2.50;;
54259;SDS011;40172;53.022;7.012;2022-10-16T04:31:06;6.00;;;2.85;;
54259;SDS011;40172;53.022;7.012;2022-10-16T04:33:32;5.95;;;2.47;;
54259;SDS011;40172;53.022;7.012;2022-10-16T04:35:59;6.30;;;2.80;;
54259;SDS011;40172;53.022;7.012;2022-10-16T04:38:25;4.75;;;2.40;;
54259;SDS011;40172;53.022;7.012;2022-10-16T04:40:51;7.07;;;2.70;;
54259;SDS011;40172;53.022;7.012;2022-10-16T04:43:17;9.50;;;2.85;;
54259;SDS011;40172;53.022;7.012;2022-10-16T04:45:43;7.60;;;3.00;;
54259;SDS011;40172;53.022;7.012;2022-10-16T04:48:08;7.00;;;2.83;;
54259;SDS011;40172;53.022;7.012;2022-10-16T04:50:34;4.38;;;2.80;;
54259;SDS011;40172;53.022;7.012;2022-10-16T04:52:59;5.50;;;2.78;;
54259;SDS011;40172;53.022;7.012;2022-10-16T04:55:25;6.75;;;2.80;;
54259;SDS011;40172;53.022;7.012;2022-10-16T04:57:51;4.95;;;2.60;;
54259;SDS011;40172;53.022;7.012;2022-10-16T05:00:16;8.25;;;2.97;;
54259;SDS011;40172;53.022;7.012;2022-10-16T05:02:42;7.88;;;2.97;;
54259;SDS011;40172;53.022;7.012;2022-10-16T05:05:07;7.65;;;2.80;;
54259;SDS011;40172;53.022;7.012;2022-10-16T05:07:33;6.93;;;2.85;;
54259;SDS011;40172;53.022;7.012;2022-10-16T05:09:59;10.52;;;3.63;;
54259;SDS011;40172;53.022;7.012;2022-10-16T05:12:25;5.47;;;3.08;;
54259;SDS011;40172;53.022;7.012;2022-10-16T05:14:50;5.05;;;2.70;;
54259;SDS011;40172;53.022;7.012;2022-10-16T05:17:16;8.32;;;3.13;;
54259;SDS011;40172;53.022;7.012;2022-10-16T05:19:41;4.82;;;3.00;;
54259;SDS011;40172;53.022;7.012;2022-10-16T05:22:07;6.93;;;3.17;;
54259;SDS011;40172;53.022;7.012;2022-10-16T05:24:32;7.25;;;2.70;;
54259;SDS011;40172;53.022;7.012;2022-10-16T05:26:58;6.68;;;2.90;;
54259;SDS011;40172;53.022;7.012;2022-10-16T05:29:24;4.20;;;2.92;;
54259;SDS011;40172;53.022;7.012;2022-10-16T05:31:50;9.07;;;3.20;;
54259;SDS011;40172;53.022;7.012;2022-10-16T05:34:16;5.32;;;2.85;;
54259;SDS011;40172;53.022;7.012;2022-10-16T05:36:42;7.95;;;3.20;;
54259;SDS011;40172;53.022;7.012;2022-10-16T05:39:10;8.43;;;2.97;;
54259;SDS011;40172;53.022;7.012;2022-10-16T05:41:36;8.18;;;3.55;;
54259;SDS011;40172;53.022;7.012;2022-10-16T05:44:05;6.75;;;3.17;;
54259;SDS011;40172;53.022;7.012;2022-10-16T05:46:31;6.03;;;3.33;;
54259;SDS011;40172;53.022;7.012;2022-10-16T05:48:57;7.53;;;3.10;;
54259;SDS011;40172;53.022;7.012;2022-10-16T05:51:23;5.00;;;3.20;;
54259;SDS011;40172;53.022;7.012;2022-10-16T05:53:48;6.70;;;3.75;;
54259;SDS011;40172;53.022;7.012;2022-10-16T05:56:14;11.98;;;3.60;;
54259;SDS011;40172;53.022;7.012;2022-10-16T05:58:40;7.47;;;3.70;;
54259;SDS011;40172;53.022;7.012;2022-10-16T06:01:12;5.63;;;2.97;;
54259;SDS011;40172;53.022;7.012;2022-10-16T06:03:43;7.28;;;3.05;;
54259;SDS011;40172;53.022;7.012;2022-10-16T06:06:09;8.40;;;3.38;;
54259;SDS011;40172;53.022;7.012;2022-10-16T06:08:36;5.80;;;3.10;;
54259;SDS011;40172;53.022;7.012;2022-10-16T06:11:03;7.32;;;3.17;;
54259;SDS011;40172;53.022;7.012;2022-10-16T06:13:30;9.95;;;3.13;;
54259;SDS011;40172;53.022;7.012;2022-10-16T06:15:56;8.90;;;3.25;;
54259;SDS011;40172;53.022;7.012;2022-10-16T06:18:23;7.75;;;3.15;;
54259;SDS011;40172;53.022;7.012;2022-10-16T06:20:49;6.25;;;3.10;;
54259;SDS011;40172;53.022;7.012;2022-10-16T06:23:15;5.82;;;3.47;;
54259;SDS011;40172;53.022;7.012;2022-10-16T06:25:40;6.22;;;3.33;;
54259;SDS011;40172;53.022;7.012;2022-10-16T06:28:06;5.90;;;2.90;;
54259;SDS011;40172;53.022;7.012;2022-10-16T06:30:31;9.10;;;3.80;;
54259;SDS011;40172;53.022;7.012;2022-10-16T06:32:57;11.38;;;3.38;;
54259;SDS011;40172;53.022;7.012;2022-10-16T06:35:22;6.35;;;3.10;;
54259;SDS011;40172;53.022;7.012;2022-10-16T06:37:48;6.43;;;3.42;;
54259;SDS011;40172;53.022;7.012;2022-10-16T06:40:14;7.78;;;3.10;;
54259;SDS011;40172;53.022;7.012;2022-10-16T06:42:40;7.28;;;2.60;;
54259;SDS011;40172;53.022;7.012;2022-10-16T06:45:06;6.60;;;2.53;;
54259;SDS011;40172;53.022;7.012;2022-10-16T06:47:32;8.55;;;2.85;;
54259;SDS011;40172;53.022;7.012;2022-10-16T06:49:58;4.65;;;2.50;;
54259;SDS011;40172;53.022;7.012;2022-10-16T06:52:23;4.82;;;2.35;;
54259;SDS011;40172;53.022;7.012;2022-10-16T06:54:49;6.40;;;2.60;;
54259;SDS011;40172;53.022;7.012;2022-10-16T06:57:15;8.25;;;3.08;;
54259;SDS011;40172;53.022;7.012;2022-10-16T06:59:41;5.15;;;2.50;;
54259;SDS011;40172;53.022;7.012;2022-10-16T07:02:07;7.28;;;2.60;;
54259;SDS011;40172;53.022;7.012;2022-10-16T07:04:35;5.45;;;2.17;;
54259;SDS011;40172;53.022;7.012;2022-10-16T07:07:01;7.50;;;2.40;;
54259;SDS011;40172;53.022;7.012;2022-10-16T07:09:26;8.68;;;2.53;;
54259;SDS011;40172;53.022;7.012;2022-10-16T07:11:52;5.20;;;2.15;;
54259;SDS011;40172;53.022;7.012;2022-10-16T07:14:18;4.25;;;2.28;;
54259;SDS011;40172;53.022;7.012;2022-10-16T07:16:45;6.78;;;2.65;;
54259;SDS011;40172;53.022;7.012;2022-10-16T07:19:11;5.93;;;2.75;;
54259;SDS011;40172;53.022;7.012;2022-10-16T07:21:39;4.05;;;2.25;;
54259;SDS011;40172;53.022;7.012;2022-10-16T07:24:06;5.40;;;2.88;;
54259;SDS011;40172;53.022;7.012;2022-10-16T07:26:36;5.88;;;1.80;;
54259;SDS011;40172;53.022;7.012;2022-10-16T07:29:04;6.22;;;2.50;;
54259;SDS011;40172;53.022;7.012;2022-10-16T07:31:31;6.43;;;2.30;;
54259;SDS011;40172;53.022;7.012;2022-10-16T07:33:57;6.22;;;2.40;;
54259;SDS011;40172;53.022;7.012;2022-10-16T07:36:24;6.63;;;2.40;;
54259;SDS011;40172;53.022;7.012;2022-10-16T07:38:50;8.65;;;2.38;;
54259;SDS011;40172;53.022;7.012;2022-10-16T07:41:16;5.20;;;2.38;;
54259;SDS011;40172;53.022;7.012;2022-10-16T07:43:48;7.15;;;2.50;;
54259;SDS011;40172;53.022;7.012;2022-10-16T07:46:15;6.68;;;2.38;;
54259;SDS011;40172;53.022;7.012;2022-10-16T07:48:41;6.25;;;2.20;;
54259;SDS011;40172;53.022;7.012;2022-10-16T07:51:11;5.82;;;2.60;;
54259;SDS011;40172;53.022;7.012;2022-10-16T07:53:37;4.25;;;2.40;;
54259;SDS011;40172;53.022;7.012;2022-10-16T07:56:04;4.25;;;2.20;;
54259;SDS011;40172;53.022;7.012;2022-10-16T07:58:31;7.78;;;2.60;;
54259;SDS011;40172;53.022;7.012;2022-10-16T08:00:58;7.40;;;2.30;;
54259;SDS011;40172;53.022;7.012;2022-10-16T08:03:27;6.50;;;2.35;;
54259;SDS011;40172;53.022;7.012;2022-10-16T08:05:53;4.72;;;2.17;;
54259;SDS011;40172;53.022;7.012;2022-10-16T08:08:18;6.80;;;2.15;;
54259;SDS011;40172;53.022;7.012;2022-10-16T08:10:44;8.82;;;2.42;;
54259;SDS011;40172;53.022;7.012;2022-10-16T08:13:10;8.75;;;2.25;;
54259;SDS011;40172;53.022;7.012;2022-10-16T08:15:36;9.50;;;2.40;;
54259;SDS011;40172;53.022;7.012;2022-10-16T08:18:02;8.27;;;2.35;;
54259;SDS011;40172;53.022;7.012;2022-10-16T08:20:29;5.22;;;2.30;;
54259;SDS011;40172;53.022;7.012;2022-10-16T08:22:57;5.53;;;1.98;;
54259;SDS011;40172;53.022;7.012;2022-10-16T08:25:23;9.18;;;2.20;;
54259;SDS011;40172;53.022;7.012;2022-10-16T08:27:50;5.43;;;2.30;;
54259;SDS011;40172;53.022;7.012;2022-10-16T08:30:16;4.80;;;2.20;;
54259;SDS011;40172;53.022;7.012;2022-10-16T08:32:43;8.68;;;2.67;;
54259;SDS011;40172;53.022;7.012;2022-10-16T08:35:09;5.50;;;2.30;;
54259;SDS011;40172;53.022;7.012;2022-10-16T08:37:36;5.75;;;2.10;;
54259;SDS011;40172;53.022;7.012;2022-10-16T08:40:02;8.38;;;2.10;;
54259;SDS011;40172;53.022;7.012;2022-10-16T08:50:36;6.32;;;1.85;;
54259;SDS011;40172;53.022;7.012;2022-10-16T08:53:03;6.80;;;1.92;;
54259;SDS011;40172;53.022;7.012;2022-10-16T08:55:33;5.15;;;1.40;;
54259;SDS011;40172;53.022;7.012;2022-10-16T08:57:59;5.95;;;1.70;;
54259;SDS011;40172;53.022;7.012;2022-10-16T09:00:26;4.18;;;1.60;;
54259;SDS011;40172;53.022;7.012;2022-10-16T09:02:53;5.68;;;1.60;;
54259;SDS011;40172;53.022;7.012;2022-10-16T09:07:56;8.95;;;1.60;;
54259;SDS011;40172;53.022;7.012;2022-10-16T09:10:56;4.45;;;1.90;;
54259;SDS011;40172;53.022;7.012;2022-10-16T09:16:10;6.43;;;1.95;;
54259;SDS011;40172;53.022;7.012;2022-10-16T09:18:40;7.40;;;1.70;;
54259;SDS011;40172;53.022;7.012;2022-10-16T09:21:21;5.43;;;1.98;;
54259;SDS011;40172;53.022;7.012;2022-10-16T09:23:50;6.90;;;1.90;;
54259;SDS011;40172;53.022;7.012;2022-10-16T09:26:16;7.45;;;1.83;;
54259;SDS011;40172;53.022;7.012;2022-10-16T09:28:44;6.32;;;1.90;;
54259;SDS011;40172;53.022;7.012;2022-10-16T09:31:18;4.85;;;1.90;;
54259;SDS011;40172;53.022;7.012;2022-10-16T09:33:47;5.68;;;1.67;;
54259;SDS011;40172;53.022;7.012;2022-10-16T09:36:17;6.53;;;2.30;;
54259;SDS011;40172;53.022;7.012;2022-10-16T09:38:44;8.88;;;1.95;;
54259;SDS011;40172;53.022;7.012;2022-10-16T09:43:55;7.22;;;1.98;;
54259;SDS011;40172;53.022;7.012;2022-10-16T09:46:25;6.70;;;2.10;;
54259;SDS011;40172;53.022;7.012;2022-10-16T09:48:59;8.18;;;2.08;;
54259;SDS011;40172;53.022;7.012;2022-10-16T09:51:36;8.52;;;2.70;;
54259;SDS011;40172;53.022;7.012;2022-10-16T09:56:34;8.15;;;2.22;;
54259;SDS011;40172;53.022;7.012;2022-10-16T09:59:22;7.93;;;2.35;;
54259;SDS011;40172;53.022;7.012;2022-10-16T10:01:53;7.88;;;2.15;;
54259;SDS011;40172;53.022;7.012;2022-10-16T10:04:20;12.95;;;2.72;;
54259;SDS011;40172;53.022;7.012;2022-10-16T10:06:49;7.95;;;2.10;;
54259;SDS011;40172;53.022;7.012;2022-10-16T10:09:26;8.45;;;2.10;;
54259;SDS011;40172;53.022;7.012;2022-10-16T10:12:02;8.37;;;1.73;;
54259;SDS011;40172;53.022;7.012;2022-10-16T10:14:39;8.05;;;1.77;;
54259;SDS011;40172;53.022;7.012;2022-10-16T10:17:09;15.57;;;2.30;;
54259;SDS011;40172;53.022;7.012;2022-10-16T10:19:44;7.53;;;1.95;;
54259;SDS011;40172;53.022;7.012;2022-10-16T10:22:23;9.98;;;2.42;;
54259;SDS011;40172;53.022;7.012;2022-10-16T10:36:22;9.10;;;2.20;;
54259;SDS011;40172;53.022;7.012;2022-10-16T10:47:18;12.30;;;2.30;;
54259;SDS011;40172;53.022;7.012;2022-10-16T10:49:53;11.85;;;2.35;;
54259;SDS011;40172;53.022;7.012;2022-10-16T10:55:15;8.48;;;1.90;;
54259;SDS011;40172;53.022;7.012;2022-10-16T10:57:52;13.82;;;2.20;;
54259;SDS011;40172;53.022;7.012;2022-10-16T11:00:50;16.10;;;2.22;;
54259;SDS011;40172;53.022;7.012;2022-10-16T11:03:58;12.95;;;2.42;;
54259;SDS011;40172;53.022;7.012;2022-10-16T11:06:41;11.20;;;2.50;;
54259;SDS011;40172;53.022;7.012;2022-10-16T11:12:20;10.32;;;2.30;;
54259;SDS011;40172;53.022;7.012;2022-10-16T11:17:31;13.82;;;2.40;;
54259;SDS011;40172;53.022;7.012;2022-10-16T11:20:12;13.95;;;2.60;;
54259;SDS011;40172;53.022;7.012;2022-10-16T11:22:47;13.30;;;2.45;;
54259;SDS011;40172;53.022;7.012;2022-10-16T11:25:21;13.45;;;2.45;;
54259;SDS011;40172;53.022;7.012;2022-10-16T11:30:24;14.43;;;2.20;;
54259;SDS011;40172;53.022;7.012;2022-10-16T11:38:38;13.40;;;2.30;;
54259;SDS011;40172;53.022;7.012;2022-10-16T11:41:32;13.45;;;2.67;;
54259;SDS011;40172;53.022;7.012;2022-10-16T11:44:34;8.10;;;2.00;;
54259;SDS011;40172;53.022;7.012;2022-10-16T11:55:36;12.18;;;2.28;;
54259;SDS011;40172;53.022;7.012;2022-10-16T11:58:09;11.18;;;2.30;;
54259;SDS011;40172;53.022;7.012;2022-10-16T12:00:46;11.75;;;2.30;;
54259;SDS011;40172;53.022;7.012;2022-10-16T12:06:11;10.68;;;2.00;;
54259;SDS011;40172;53.022;7.012;2022-10-16T12:14:03;11.13;;;2.20;;
54259;SDS011;40172;53.022;7.012;2022-10-16T12:16:54;14.05;;;2.63;;
54259;SDS011;40172;53.022;7.012;2022-10-16T12:19:22;10.77;;;2.25;;
54259;SDS011;40172;53.022;7.012;2022-10-16T12:21:50;9.80;;;2.13;;
54259;SDS011;40172;53.022;7.012;2022-10-16T12:24:21;10.35;;;2.30;;
54259;SDS011;40172;53.022;7.012;2022-10-16T12:26:54;12.45;;;2.00;;
54259;SDS011;40172;53.022;7.012;2022-10-16T12:29:32;14.25;;;2.38;;
54259;SDS011;40172;53.022;7.012;2022-10-16T12:32:27;15.15;;;2.30;;
54259;SDS011;40172;53.022;7.012;2022-10-16T12:35:02;5.75;;;1.70;;
54259;SDS011;40172;53.022;7.012;2022-10-16T12:37:36;16.83;;;2.67;;
54259;SDS011;40172;53.022;7.012;2022-10-16T12:40:13;12.00;;;2.35;;
54259;SDS011;40172;53.022;7.012;2022-10-16T12:42:49;12.65;;;2.00;;
54259;SDS011;40172;53.022;7.012;2022-10-16T12:47:50;16.45;;;2.40;;
54259;SDS011;40172;53.022;7.012;2022-10-16T12:50:24;12.75;;;2.42;;
54259;SDS011;40172;53.022;7.012;2022-10-16T12:52:58;10.93;;;2.35;;
54259;SDS011;40172;53.022;7.012;2022-10-16T12:55:25;14.88;;;2.40;;
54259;SDS011;40172;53.022;7.012;2022-10-16T12:58:08;14.20;;;2.20;;
54259;SDS011;40172;53.022;7.012;2022-10-16T13:00:38;11.70;;;2.20;;
54259;SDS011;40172;53.022;7.012;2022-10-16T13:03:51;11.40;;;2.25;;
54259;SDS011;40172;53.022;7.012;2022-10-16T13:06:50;13.07;;;2.42;;
54259;SDS011;40172;53.022;7.012;2022-10-16T13:10:00;12.82;;;2.45;;
54259;SDS011;40172;53.022;7.012;2022-10-16T13:12:25;14.23;;;2.55;;
54259;SDS011;40172;53.022;7.012;2022-10-16T13:18:19;9.25;;;2.17;;
54259;SDS011;40172;53.022;7.012;2022-10-16T13:21:18;12.60;;;3.03;;
54259;SDS011;40172;53.022;7.012;2022-10-16T13:23:58;11.75;;;2.03;;
54259;SDS011;40172;53.022;7.012;2022-10-16T13:29:14;7.65;;;2.58;;
54259;SDS011;40172;53.022;7.012;2022-10-16T13:31:41;14.10;;;2.83;;
54259;SDS011;40172;53.022;7.012;2022-10-16T13:34:19;10.50;;;2.08;;
54259;SDS011;40172;53.022;7.012;2022-10-16T13:36:48;10.38;;;2.10;;
54259;SDS011;40172;53.022;7.012;2022-10-16T13:39:20;16.75;;;2.63;;
54259;SDS011;40172;53.022;7.012;2022-10-16T13:41:58;11.48;;;2.30;;
54259;SDS011;40172;53.022;7.012;2022-10-16T13:44:40;10.77;;;2.25;;
54259;SDS011;40172;53.022;7.012;2022-10-16T13:47:17;9.20;;;2.10;;
54259;SDS011;40172;53.022;7.012;2022-10-16T13:49:43;11.48;;;2.17;;
54259;SDS011;40172;53.022;7.012;2022-10-16T13:52:17;12.68;;;2.22;;
54259;SDS011;40172;53.022;7.012;2022-10-16T13:54:44;10.07;;;2.00;;
54259;SDS011;40172;53.022;7.012;2022-10-16T13:57:12;10.57;;;2.03;;
54259;SDS011;40172;53.022;7.012;2022-10-16T13:59:39;10.73;;;1.88;;
54259;SDS011;40172;53.022;7.012;2022-10-16T14:02:13;8.63;;;2.22;;
54259;SDS011;40172;53.022;7.012;2022-10-16T14:04:46;14.10;;;2.30;;
54259;SDS011;40172;53.022;7.012;2022-10-16T14:07:14;12.48;;;2.35;;
54259;SDS011;40172;53.022;7.012;2022-10-16T14:09:47;11.38;;;2.42;;
54259;SDS011;40172;53.022;7.012;2022-10-16T14:12:14;10.23;;;2.20;;
54259;SDS011;40172;53.022;7.012;2022-10-16T14:14:41;11.07;;;2.40;;
54259;SDS011;40172;53.022;7.012;2022-10-16T14:19:54;9.30;;;2.05;;
54259;SDS011;40172;53.022;7.012;2022-10-16T14:22:35;13.35;;;2.33;;
54259;SDS011;40172;53.022;7.012;2022-10-16T14:25:02;11.65;;;2.33;;
54259;SDS011;40172;53.022;7.012;2022-10-16T14:27:43;9.43;;;2.08;;
54259;SDS011;40172;53.022;7.012;2022-10-16T14:32:40;11.13;;;2.80;;
54259;SDS011;40172;53.022;7.012;2022-10-16T14:35:29;9.45;;;2.10;;
54259;SDS011;40172;53.022;7.012;2022-10-16T14:37:55;11.93;;;2.22;;
54259;SDS011;40172;53.022;7.012;2022-10-16T14:40:27;10.32;;;2.53;;
54259;SDS011;40172;53.022;7.012;2022-10-16T14:42:57;9.38;;;2.03;;
54259;SDS011;40172;53.022;7.012;2022-10-16T14:45:28;14.32;;;2.58;;
54259;SDS011;40172;53.022;7.012;2022-10-16T14:47:57;13.18;;;2.38;;
54259;SDS011;40172;53.022;7.012;2022-10-16T14:50:28;12.97;;;2.30;;
54259;SDS011;40172;53.022;7.012;2022-10-16T14:52:54;9.50;;;1.70;;
54259;SDS011;40172;53.022;7.012;2022-10-16T14:55:20;10.15;;;1.95;;
54259;SDS011;40172;53.022;7.012;2022-10-16T14:57:46;11.75;;;2.40;;
54259;SDS011;40172;53.022;7.012;2022-10-16T15:00:17;14.30;;;2.53;;
54259;SDS011;40172;53.022;7.012;2022-10-16T15:02:45;9.93;;;2.27;;
54259;SDS011;40172;53.022;7.012;2022-10-16T15:05:23;12.32;;;2.10;;
54259;SDS011;40172;53.022;7.012;2022-10-16T15:07:51;12.88;;;2.13;;
54259;SDS011;40172;53.022;7.012;2022-10-16T15:10:20;14.00;;;2.50;;
54259;SDS011;40172;53.022;7.012;2022-10-16T15:12:48;16.88;;;2.88;;
54259;SDS011;40172;53.022;7.012;2022-10-16T15:17:52;11.55;;;2.55;;
54259;SDS011;40172;53.022;7.012;2022-10-16T15:20:26;11.90;;;2.30;;
54259;SDS011;40172;53.022;7.012;2022-10-16T15:22:52;13.82;;;2.83;;
54259;SDS011;40172;53.022;7.012;2022-10-16T15:27:57;13.95;;;2.35;;
54259;SDS011;40172;53.022;7.012;2022-10-16T15:30:23;14.77;;;2.38;;
54259;SDS011;40172;53.022;7.012;2022-10-16T15:32:48;9.82;;;2.40;;
54259;SDS011;40172;53.022;7.012;2022-10-16T15:35:14;14.70;;;2.70;;
54259;SDS011;40172;53.022;7.012;2022-10-16T15:37:39;14.48;;;2.47;;
54259;SDS011;40172;53.022;7.012;2022-10-16T15:40:05;11.65;;;2.33;;
54259;SDS011;40172;53.022;7.012;2022-10-16T15:42:31;11.50;;;2.45;;
54259;SDS011;40172;53.022;7.012;2022-10-16T15:44:57;12.18;;;2.42;;
54259;SDS011;40172;53.022;7.012;2022-10-16T15:47:22;17.60;;;2.65;;
54259;SDS011;40172;53.022;7.012;2022-10-16T15:49:48;13.02;;;2.63;;
54259;SDS011;40172;53.022;7.012;2022-10-16T15:52:13;10.75;;;2.33;;
54259;SDS011;40172;53.022;7.012;2022-10-16T15:54:39;14.15;;;2.60;;
54259;SDS011;40172;53.022;7.012;2022-10-16T15:57:04;15.65;;;3.17;;
54259;SDS011;40172;53.022;7.012;2022-10-16T15:59:30;12.52;;;2.17;;
54259;SDS011;40172;53.022;7.012;2022-10-16T16:01:56;15.05;;;2.42;;
54259;SDS011;40172;53.022;7.012;2022-10-16T16:04:22;12.77;;;2.33;;
54259;SDS011;40172;53.022;7.012;2022-10-16T16:06:48;19.48;;;2.40;;
54259;SDS011;40172;53.022;7.012;2022-10-16T16:09:14;11.20;;;2.83;;
54259;SDS011;40172;53.022;7.012;2022-10-16T16:11:39;13.77;;;2.50;;
54259;SDS011;40172;53.022;7.012;2022-10-16T16:14:05;11.73;;;2.65;;
54259;SDS011;40172;53.022;7.012;2022-10-16T16:16:49;15.77;;;2.80;;
54259;SDS011;40172;53.022;7.012;2022-10-16T16:19:40;12.77;;;2.20;;
54259;SDS011;40172;53.022;7.012;2022-10-16T16:22:50;13.48;;;2.30;;
54259;SDS011;40172;53.022;7.012;2022-10-16T16:25:21;14.23;;;2.60;;
54259;SDS011;40172;53.022;7.012;2022-10-16T16:28:06;11.32;;;2.83;;
54259;SDS011;40172;53.022;7.012;2022-10-16T16:30:50;12.88;;;2.83;;
54259;SDS011;40172;53.022;7.012;2022-10-16T16:33:24;17.13;;;2.78;;
54259;SDS011;40172;53.022;7.012;2022-10-16T16:36:07;14.38;;;2.67;;
54259;SDS011;40172;53.022;7.012;2022-10-16T16:38:43;14.30;;;3.78;;
54259;SDS011;40172;53.022;7.012;2022-10-16T16:41:26;11.95;;;3.05;;
54259;SDS011;40172;53.022;7.012;2022-10-16T16:43:53;12.07;;;2.90;;